sensor_id;sensor_type;location;lat;lon;timestamp;temperature;humidity
7117;DHT22;3600;48.568;7.870;2023-04-06T00:00:34;3.20;98.30
7117;DHT22;3600;48.568;7.870;2023-04-06T00:03:01;3.30;98.20
7117;DHT22;3600;48.568;7.870;2023-04-06T00:05:28;3.40;98.20
7117;DHT22;3600;48.568;7.870;2023-04-06T00:07:58;3.40;98.10
7117;DHT22;3600;48.568;7.870;2023-04-06T00:10:25;3.50;98.00
7117;DHT22;3600;48.568;7.870;2023-04-06T00:12:52;3.20;98.00
7117;DHT22;3600;48.568;7.870;2023-04-06T00:15:19;3.10;98.20
7117;DHT22;3600;48.568;7.870;2023-04-06T00:17:46;3.20;98.30
7117;DHT22;3600;48.568;7.870;2023-04-06T00:20:13;3.30;98.60
7117;DHT22;3600;48.568;7.870;2023-04-06T00:22:40;3.40;98.20
7117;DHT22;3600;48.568;7.870;2023-04-06T00:25:07;3.40;98.20
7117;DHT22;3600;48.568;7.870;2023-04-06T00:27:33;3.50;98.20
7117;DHT22;3600;48.568;7.870;2023-04-06T00:30:01;3.50;98.20
7117;DHT22;3600;48.568;7.870;2023-04-06T00:32:27;3.60;98.40
7117;DHT22;3600;48.568;7.870;2023-04-06T00:34:54;3.60;98.50
7117;DHT22;3600;48.568;7.870;2023-04-06T00:37:21;3.60;98.40
7117;DHT22;3600;48.568;7.870;2023-04-06T00:39:48;3.70;98.40
7117;DHT22;3600;48.568;7.870;2023-04-06T00:42:15;3.70;98.20
7117;DHT22;3600;48.568;7.870;2023-04-06T00:44:42;3.70;98.10
7117;DHT22;3600;48.568;7.870;2023-04-06T00:47:08;3.60;98.00
7117;DHT22;3600;48.568;7.870;2023-04-06T00:49:35;3.60;98.00
7117;DHT22;3600;48.568;7.870;2023-04-06T00:52:02;3.50;98.00
7117;DHT22;3600;48.568;7.870;2023-04-06T00:54:29;3.60;98.00
7117;DHT22;3600;48.568;7.870;2023-04-06T00:56:57;3.50;98.00
7117;DHT22;3600;48.568;7.870;2023-04-06T00:59:24;3.40;98.10
7117;DHT22;3600;48.568;7.870;2023-04-06T01:01:51;3.40;98.10
7117;DHT22;3600;48.568;7.870;2023-04-06T01:04:17;3.40;98.20
7117;DHT22;3600;48.568;7.870;2023-04-06T01:06:44;3.40;98.10
7117;DHT22;3600;48.568;7.870;2023-04-06T01:09:12;3.30;98.10
7117;DHT22;3600;48.568;7.870;2023-04-06T01:11:38;3.40;98.10
7117;DHT22;3600;48.568;7.870;2023-04-06T01:14:05;3.40;98.10
7117;DHT22;3600;48.568;7.870;2023-04-06T01:16:32;3.40;98.00
7117;DHT22;3600;48.568;7.870;2023-04-06T01:18:59;3.40;98.10
7117;DHT22;3600;48.568;7.870;2023-04-06T01:21:26;3.20;98.10
7117;DHT22;3600;48.568;7.870;2023-04-06T01:23:53;3.20;98.10
7117;DHT22;3600;48.568;7.870;2023-04-06T01:26:20;3.20;98.30
7117;DHT22;3600;48.568;7.870;2023-04-06T01:28:46;3.20;98.40
7117;DHT22;3600;48.568;7.870;2023-04-06T01:31:13;3.20;98.30
7117;DHT22;3600;48.568;7.870;2023-04-06T01:33:40;3.10;98.30
7117;DHT22;3600;48.568;7.870;2023-04-06T01:36:07;3.20;98.50
7117;DHT22;3600;48.568;7.870;2023-04-06T01:38:33;2.90;98.50
7117;DHT22;3600;48.568;7.870;2023-04-06T01:41:01;2.80;98.90
7117;DHT22;3600;48.568;7.870;2023-04-06T01:43:27;2.90;98.70
7117;DHT22;3600;48.568;7.870;2023-04-06T01:45:54;2.70;98.70
7117;DHT22;3600;48.568;7.870;2023-04-06T01:48:21;2.80;98.90
7117;DHT22;3600;48.568;7.870;2023-04-06T01:50:48;2.70;99.00
7117;DHT22;3600;48.568;7.870;2023-04-06T01:53:15;2.60;99.10
7117;DHT22;3600;48.568;7.870;2023-04-06T01:55:42;2.30;99.40
7117;DHT22;3600;48.568;7.870;2023-04-06T01:58:09;2.10;99.90
7117;DHT22;3600;48.568;7.870;2023-04-06T02:00:36;2.00;99.90
7117;DHT22;3600;48.568;7.870;2023-04-06T02:03:02;1.90;99.90
7117;DHT22;3600;48.568;7.870;2023-04-06T02:05:31;1.80;99.90
7117;DHT22;3600;48.568;7.870;2023-04-06T02:07:59;1.70;99.90
7117;DHT22;3600;48.568;7.870;2023-04-06T02:10:26;1.70;99.90
7117;DHT22;3600;48.568;7.870;2023-04-06T02:12:53;1.90;99.90
7117;DHT22;3600;48.568;7.870;2023-04-06T02:15:19;1.90;99.90
7117;DHT22;3600;48.568;7.870;2023-04-06T02:17:46;2.00;99.90
7117;DHT22;3600;48.568;7.870;2023-04-06T02:20:13;2.10;99.90
7117;DHT22;3600;48.568;7.870;2023-04-06T02:22:40;2.10;99.90
7117;DHT22;3600;48.568;7.870;2023-04-06T02:25:07;1.90;99.90
7117;DHT22;3600;48.568;7.870;2023-04-06T02:27:34;1.80;99.90
7117;DHT22;3600;48.568;7.870;2023-04-06T02:30:01;1.80;99.90
7117;DHT22;3600;48.568;7.870;2023-04-06T02:32:28;2.00;99.90
7117;DHT22;3600;48.568;7.870;2023-04-06T02:34:55;1.90;99.90
7117;DHT22;3600;48.568;7.870;2023-04-06T02:37:22;1.90;99.90
7117;DHT22;3600;48.568;7.870;2023-04-06T02:39:50;1.80;99.90
7117;DHT22;3600;48.568;7.870;2023-04-06T02:42:17;1.80;99.90
7117;DHT22;3600;48.568;7.870;2023-04-06T02:44:44;1.70;99.90
7117;DHT22;3600;48.568;7.870;2023-04-06T02:47:10;1.60;99.90
7117;DHT22;3600;48.568;7.870;2023-04-06T02:49:37;1.60;99.90
7117;DHT22;3600;48.568;7.870;2023-04-06T02:52:04;1.50;99.90
7117;DHT22;3600;48.568;7.870;2023-04-06T02:54:31;1.60;99.90
7117;DHT22;3600;48.568;7.870;2023-04-06T02:56:58;1.70;99.90
7117;DHT22;3600;48.568;7.870;2023-04-06T02:59:24;1.70;99.90
7117;DHT22;3600;48.568;7.870;2023-04-06T03:01:52;1.70;99.90
7117;DHT22;3600;48.568;7.870;2023-04-06T03:04:19;1.60;99.90
7117;DHT22;3600;48.568;7.870;2023-04-06T03:06:46;1.50;99.90
7117;DHT22;3600;48.568;7.870;2023-04-06T03:09:12;1.60;99.90
7117;DHT22;3600;48.568;7.870;2023-04-06T03:11:40;1.90;99.90
7117;DHT22;3600;48.568;7.870;2023-04-06T03:14:07;1.90;99.90
7117;DHT22;3600;48.568;7.870;2023-04-06T03:16:34;1.90;99.90
7117;DHT22;3600;48.568;7.870;2023-04-06T03:19:00;1.90;99.90
7117;DHT22;3600;48.568;7.870;2023-04-06T03:21:27;1.90;99.90
7117;DHT22;3600;48.568;7.870;2023-04-06T03:23:54;2.10;99.90
7117;DHT22;3600;48.568;7.870;2023-04-06T03:26:21;2.20;99.90
7117;DHT22;3600;48.568;7.870;2023-04-06T03:28:48;2.20;99.90
7117;DHT22;3600;48.568;7.870;2023-04-06T03:31:15;2.20;99.90
7117;DHT22;3600;48.568;7.870;2023-04-06T03:33:42;2.20;99.90
7117;DHT22;3600;48.568;7.870;2023-04-06T03:36:08;2.20;99.90
7117;DHT22;3600;48.568;7.870;2023-04-06T03:38:36;2.30;99.90
7117;DHT22;3600;48.568;7.870;2023-04-06T03:41:05;2.20;99.90
7117;DHT22;3600;48.568;7.870;2023-04-06T03:43:31;2.20;99.90
7117;DHT22;3600;48.568;7.870;2023-04-06T03:45:58;2.10;99.90
7117;DHT22;3600;48.568;7.870;2023-04-06T03:48:25;2.10;99.90
7117;DHT22;3600;48.568;7.870;2023-04-06T03:50:51;2.10;99.90
7117;DHT22;3600;48.568;7.870;2023-04-06T03:53:18;2.10;99.90
7117;DHT22;3600;48.568;7.870;2023-04-06T03:55:45;2.00;99.90
7117;DHT22;3600;48.568;7.870;2023-04-06T03:58:12;2.00;99.90
7117;DHT22;3600;48.568;7.870;2023-04-06T04:00:38;2.00;99.90
7117;DHT22;3600;48.568;7.870;2023-04-06T04:03:05;2.00;99.90
7117;DHT22;3600;48.568;7.870;2023-04-06T04:05:32;2.10;99.90
7117;DHT22;3600;48.568;7.870;2023-04-06T04:07:58;2.10;99.90
7117;DHT22;3600;48.568;7.870;2023-04-06T04:10:25;2.00;99.90
7117;DHT22;3600;48.568;7.870;2023-04-06T04:12:52;1.90;99.90
7117;DHT22;3600;48.568;7.870;2023-04-06T04:15:19;1.90;99.90
7117;DHT22;3600;48.568;7.870;2023-04-06T04:17:46;1.90;99.90
7117;DHT22;3600;48.568;7.870;2023-04-06T04:20:15;1.90;99.90
7117;DHT22;3600;48.568;7.870;2023-04-06T04:22:42;1.90;99.90
7117;DHT22;3600;48.568;7.870;2023-04-06T04:25:09;1.90;99.90
7117;DHT22;3600;48.568;7.870;2023-04-06T04:27:36;1.90;99.90
7117;DHT22;3600;48.568;7.870;2023-04-06T04:30:03;1.90;99.90
7117;DHT22;3600;48.568;7.870;2023-04-06T04:32:30;1.90;99.90
7117;DHT22;3600;48.568;7.870;2023-04-06T04:34:57;2.00;99.90
7117;DHT22;3600;48.568;7.870;2023-04-06T04:37:24;2.00;99.90
7117;DHT22;3600;48.568;7.870;2023-04-06T04:39:50;2.00;99.90
7117;DHT22;3600;48.568;7.870;2023-04-06T04:42:17;2.00;99.90
7117;DHT22;3600;48.568;7.870;2023-04-06T04:44:44;2.00;99.90
7117;DHT22;3600;48.568;7.870;2023-04-06T04:47:10;1.90;99.90
7117;DHT22;3600;48.568;7.870;2023-04-06T04:49:37;1.90;99.90
7117;DHT22;3600;48.568;7.870;2023-04-06T04:52:04;1.90;99.90
7117;DHT22;3600;48.568;7.870;2023-04-06T04:54:31;1.90;99.90
7117;DHT22;3600;48.568;7.870;2023-04-06T04:56:57;1.90;99.90
7117;DHT22;3600;48.568;7.870;2023-04-06T04:59:24;1.80;99.90
7117;DHT22;3600;48.568;7.870;2023-04-06T05:01:51;1.80;99.90
7117;DHT22;3600;48.568;7.870;2023-04-06T05:04:21;1.70;99.90
7117;DHT22;3600;48.568;7.870;2023-04-06T05:06:48;1.70;99.90
7117;DHT22;3600;48.568;7.870;2023-04-06T05:09:15;1.70;99.90
7117;DHT22;3600;48.568;7.870;2023-04-06T05:11:42;1.80;99.90
7117;DHT22;3600;48.568;7.870;2023-04-06T05:14:09;1.90;99.90
7117;DHT22;3600;48.568;7.870;2023-04-06T05:16:36;1.90;99.90
7117;DHT22;3600;48.568;7.870;2023-04-06T05:19:03;1.90;99.90
7117;DHT22;3600;48.568;7.870;2023-04-06T05:21:29;1.80;99.90
7117;DHT22;3600;48.568;7.870;2023-04-06T05:23:56;1.90;99.90
7117;DHT22;3600;48.568;7.870;2023-04-06T05:26:24;1.90;99.90
7117;DHT22;3600;48.568;7.870;2023-04-06T05:28:51;1.90;99.90
7117;DHT22;3600;48.568;7.870;2023-04-06T05:31:19;2.00;99.90
7117;DHT22;3600;48.568;7.870;2023-04-06T05:33:46;1.90;99.90
7117;DHT22;3600;48.568;7.870;2023-04-06T05:36:12;2.00;99.90
7117;DHT22;3600;48.568;7.870;2023-04-06T05:38:40;2.00;99.90
7117;DHT22;3600;48.568;7.870;2023-04-06T05:41:07;1.90;99.90
7117;DHT22;3600;48.568;7.870;2023-04-06T05:43:34;2.00;99.90
7117;DHT22;3600;48.568;7.870;2023-04-06T05:46:01;2.00;99.90
7117;DHT22;3600;48.568;7.870;2023-04-06T05:48:27;2.00;99.90
7117;DHT22;3600;48.568;7.870;2023-04-06T05:50:54;2.00;99.80
7117;DHT22;3600;48.568;7.870;2023-04-06T05:53:21;2.00;99.90
7117;DHT22;3600;48.568;7.870;2023-04-06T05:55:48;2.00;99.80
7117;DHT22;3600;48.568;7.870;2023-04-06T05:58:15;2.00;99.80
7117;DHT22;3600;48.568;7.870;2023-04-06T06:00:43;2.10;99.90
7117;DHT22;3600;48.568;7.870;2023-04-06T06:03:12;2.10;99.70
7117;DHT22;3600;48.568;7.870;2023-04-06T06:05:39;2.10;99.60
7117;DHT22;3600;48.568;7.870;2023-04-06T06:08:06;2.20;99.60
7117;DHT22;3600;48.568;7.870;2023-04-06T06:10:33;2.20;99.70
7117;DHT22;3600;48.568;7.870;2023-04-06T06:13:00;2.20;99.70
7117;DHT22;3600;48.568;7.870;2023-04-06T06:15:27;2.20;99.80
7117;DHT22;3600;48.568;7.870;2023-04-06T06:17:53;2.30;99.80
7117;DHT22;3600;48.568;7.870;2023-04-06T06:20:20;2.30;99.70
7117;DHT22;3600;48.568;7.870;2023-04-06T06:22:47;2.20;99.80
7117;DHT22;3600;48.568;7.870;2023-04-06T06:25:14;2.20;99.90
7117;DHT22;3600;48.568;7.870;2023-04-06T06:27:43;2.20;99.90
7117;DHT22;3600;48.568;7.870;2023-04-06T06:30:10;2.30;99.90
7117;DHT22;3600;48.568;7.870;2023-04-06T06:32:36;2.30;99.80
7117;DHT22;3600;48.568;7.870;2023-04-06T06:35:03;2.40;99.80
7117;DHT22;3600;48.568;7.870;2023-04-06T06:37:30;2.40;99.80
7117;DHT22;3600;48.568;7.870;2023-04-06T06:39:57;2.40;99.60
7117;DHT22;3600;48.568;7.870;2023-04-06T06:42:23;2.40;99.70
7117;DHT22;3600;48.568;7.870;2023-04-06T06:44:51;2.40;99.70
7117;DHT22;3600;48.568;7.870;2023-04-06T06:47:18;2.40;99.80
7117;DHT22;3600;48.568;7.870;2023-04-06T06:49:45;2.50;99.90
7117;DHT22;3600;48.568;7.870;2023-04-06T06:52:11;2.60;99.80
7117;DHT22;3600;48.568;7.870;2023-04-06T06:54:38;2.70;99.90
7117;DHT22;3600;48.568;7.870;2023-04-06T06:57:05;2.70;99.90
7117;DHT22;3600;48.568;7.870;2023-04-06T06:59:32;2.80;99.90
7117;DHT22;3600;48.568;7.870;2023-04-06T07:01:58;2.70;99.90
7117;DHT22;3600;48.568;7.870;2023-04-06T07:04:25;2.70;99.90
7117;DHT22;3600;48.568;7.870;2023-04-06T07:06:52;2.70;99.90
7117;DHT22;3600;48.568;7.870;2023-04-06T07:09:19;2.80;99.90
7117;DHT22;3600;48.568;7.870;2023-04-06T07:11:46;2.90;99.90
7117;DHT22;3600;48.568;7.870;2023-04-06T07:14:15;2.90;99.90
7117;DHT22;3600;48.568;7.870;2023-04-06T07:16:42;3.00;99.90
7117;DHT22;3600;48.568;7.870;2023-04-06T07:19:11;3.20;99.90
7117;DHT22;3600;48.568;7.870;2023-04-06T07:21:38;3.30;99.90
7117;DHT22;3600;48.568;7.870;2023-04-06T07:24:05;3.20;99.90
7117;DHT22;3600;48.568;7.870;2023-04-06T07:26:32;3.40;99.90
7117;DHT22;3600;48.568;7.870;2023-04-06T07:28:58;3.40;99.90
7117;DHT22;3600;48.568;7.870;2023-04-06T07:31:25;3.50;99.90
7117;DHT22;3600;48.568;7.870;2023-04-06T07:33:52;3.60;99.90
7117;DHT22;3600;48.568;7.870;2023-04-06T07:36:20;3.60;99.90
7117;DHT22;3600;48.568;7.870;2023-04-06T07:38:47;3.80;99.90
7117;DHT22;3600;48.568;7.870;2023-04-06T07:41:13;3.90;99.90
7117;DHT22;3600;48.568;7.870;2023-04-06T07:43:40;3.90;99.80
7117;DHT22;3600;48.568;7.870;2023-04-06T07:46:07;4.00;99.60
7117;DHT22;3600;48.568;7.870;2023-04-06T07:48:34;4.20;99.40
7117;DHT22;3600;48.568;7.870;2023-04-06T07:51:02;4.20;99.10
7117;DHT22;3600;48.568;7.870;2023-04-06T07:53:29;4.30;99.00
7117;DHT22;3600;48.568;7.870;2023-04-06T07:55:58;4.40;98.80
7117;DHT22;3600;48.568;7.870;2023-04-06T07:58:25;4.50;98.80
7117;DHT22;3600;48.568;7.870;2023-04-06T08:00:52;4.60;98.80
7117;DHT22;3600;48.568;7.870;2023-04-06T08:03:19;4.70;98.00
7117;DHT22;3600;48.568;7.870;2023-04-06T08:05:48;4.80;97.90
7117;DHT22;3600;48.568;7.870;2023-04-06T08:08:14;4.90;97.80
7117;DHT22;3600;48.568;7.870;2023-04-06T08:10:42;5.10;97.80
7117;DHT22;3600;48.568;7.870;2023-04-06T08:13:10;5.20;97.50
7117;DHT22;3600;48.568;7.870;2023-04-06T08:15:37;5.30;97.50
7117;DHT22;3600;48.568;7.870;2023-04-06T08:18:04;5.40;97.30
7117;DHT22;3600;48.568;7.870;2023-04-06T08:20:31;5.70;97.20
7117;DHT22;3600;48.568;7.870;2023-04-06T08:22:57;5.70;97.10
7117;DHT22;3600;48.568;7.870;2023-04-06T08:25:24;5.80;97.10
7117;DHT22;3600;48.568;7.870;2023-04-06T08:27:51;6.00;97.00
7117;DHT22;3600;48.568;7.870;2023-04-06T08:30:18;6.10;96.80
7117;DHT22;3600;48.568;7.870;2023-04-06T08:32:45;6.20;96.90
7117;DHT22;3600;48.568;7.870;2023-04-06T08:35:12;6.30;96.90
7117;DHT22;3600;48.568;7.870;2023-04-06T08:37:40;6.50;96.30
7117;DHT22;3600;48.568;7.870;2023-04-06T08:40:07;6.60;96.00
7117;DHT22;3600;48.568;7.870;2023-04-06T08:42:39;6.60;96.20
7117;DHT22;3600;48.568;7.870;2023-04-06T08:45:08;6.60;96.00
7117;DHT22;3600;48.568;7.870;2023-04-06T08:47:36;6.70;96.00
7117;DHT22;3600;48.568;7.870;2023-04-06T08:50:07;6.80;95.80
7117;DHT22;3600;48.568;7.870;2023-04-06T08:52:34;7.00;95.80
7117;DHT22;3600;48.568;7.870;2023-04-06T08:55:02;7.00;96.00
7117;DHT22;3600;48.568;7.870;2023-04-06T08:57:31;7.20;95.50
7117;DHT22;3600;48.568;7.870;2023-04-06T09:00:00;7.30;95.30
7117;DHT22;3600;48.568;7.870;2023-04-06T09:02:27;7.30;95.50
7117;DHT22;3600;48.568;7.870;2023-04-06T09:04:54;7.40;95.30
7117;DHT22;3600;48.568;7.870;2023-04-06T09:07:21;7.40;95.00
7117;DHT22;3600;48.568;7.870;2023-04-06T09:09:48;7.40;94.90
7117;DHT22;3600;48.568;7.870;2023-04-06T09:12:25;7.40;94.70
7117;DHT22;3600;48.568;7.870;2023-04-06T09:14:53;7.50;94.20
7117;DHT22;3600;48.568;7.870;2023-04-06T09:17:25;7.50;94.70
7117;DHT22;3600;48.568;7.870;2023-04-06T09:19:52;7.60;94.80
7117;DHT22;3600;48.568;7.870;2023-04-06T09:22:20;7.70;94.60
7117;DHT22;3600;48.568;7.870;2023-04-06T09:24:49;7.80;95.00
7117;DHT22;3600;48.568;7.870;2023-04-06T09:27:17;8.00;94.00
7117;DHT22;3600;48.568;7.870;2023-04-06T09:29:44;8.00;94.20
7117;DHT22;3600;48.568;7.870;2023-04-06T09:32:11;8.00;93.50
7117;DHT22;3600;48.568;7.870;2023-04-06T09:34:39;8.30;94.00
7117;DHT22;3600;48.568;7.870;2023-04-06T09:37:13;8.30;93.90
7117;DHT22;3600;48.568;7.870;2023-04-06T09:39:40;8.40;93.50
7117;DHT22;3600;48.568;7.870;2023-04-06T09:42:08;8.40;93.30
7117;DHT22;3600;48.568;7.870;2023-04-06T09:44:34;8.60;93.60
7117;DHT22;3600;48.568;7.870;2023-04-06T09:47:05;8.70;93.20
7117;DHT22;3600;48.568;7.870;2023-04-06T09:49:33;8.80;93.00
7117;DHT22;3600;48.568;7.870;2023-04-06T09:52:03;9.00;94.00
7117;DHT22;3600;48.568;7.870;2023-04-06T09:54:31;9.10;93.30
7117;DHT22;3600;48.568;7.870;2023-04-06T09:57:07;9.30;92.30
7117;DHT22;3600;48.568;7.870;2023-04-06T10:02:34;9.60;91.20
7117;DHT22;3600;48.568;7.870;2023-04-06T10:05:07;9.70;90.70
7117;DHT22;3600;48.568;7.870;2023-04-06T10:07:36;9.80;90.90
7117;DHT22;3600;48.568;7.870;2023-04-06T10:10:24;9.90;91.20
7117;DHT22;3600;48.568;7.870;2023-04-06T10:12:51;10.00;90.40
7117;DHT22;3600;48.568;7.870;2023-04-06T10:15:19;10.10;88.60
7117;DHT22;3600;48.568;7.870;2023-04-06T10:17:48;10.30;87.10
7117;DHT22;3600;48.568;7.870;2023-04-06T10:23:32;10.30;85.90
7117;DHT22;3600;48.568;7.870;2023-04-06T10:26:00;10.40;85.00
7117;DHT22;3600;48.568;7.870;2023-04-06T10:28:35;10.50;88.20
7117;DHT22;3600;48.568;7.870;2023-04-06T10:31:05;10.70;88.40
7117;DHT22;3600;48.568;7.870;2023-04-06T10:33:32;10.70;88.10
7117;DHT22;3600;48.568;7.870;2023-04-06T10:36:21;10.80;88.90
7117;DHT22;3600;48.568;7.870;2023-04-06T10:39:11;11.00;88.00
7117;DHT22;3600;48.568;7.870;2023-04-06T10:41:43;11.10;85.50
7117;DHT22;3600;48.568;7.870;2023-04-06T10:44:21;11.10;84.20
7117;DHT22;3600;48.568;7.870;2023-04-06T10:46:59;11.00;82.30
7117;DHT22;3600;48.568;7.870;2023-04-06T10:49:29;11.20;84.30
7117;DHT22;3600;48.568;7.870;2023-04-06T10:51:57;11.20;82.30
7117;DHT22;3600;48.568;7.870;2023-04-06T10:54:26;11.40;82.90
7117;DHT22;3600;48.568;7.870;2023-04-06T10:56:53;11.40;80.50
7117;DHT22;3600;48.568;7.870;2023-04-06T10:59:21;11.50;83.60
7117;DHT22;3600;48.568;7.870;2023-04-06T11:01:48;11.60;76.20
7117;DHT22;3600;48.568;7.870;2023-04-06T11:04:16;11.80;76.90
7117;DHT22;3600;48.568;7.870;2023-04-06T11:06:48;11.80;78.70
7117;DHT22;3600;48.568;7.870;2023-04-06T11:09:29;11.90;78.90
7117;DHT22;3600;48.568;7.870;2023-04-06T11:11:57;12.00;78.30
7117;DHT22;3600;48.568;7.870;2023-04-06T11:14:24;12.10;76.20
7117;DHT22;3600;48.568;7.870;2023-04-06T11:16:53;12.30;77.20
7117;DHT22;3600;48.568;7.870;2023-04-06T11:19:20;12.40;79.40
7117;DHT22;3600;48.568;7.870;2023-04-06T11:21:48;12.50;77.00
7117;DHT22;3600;48.568;7.870;2023-04-06T11:24:20;12.60;77.30
7117;DHT22;3600;48.568;7.870;2023-04-06T11:26:57;12.80;77.20
7117;DHT22;3600;48.568;7.870;2023-04-06T11:29:29;12.80;78.20
7117;DHT22;3600;48.568;7.870;2023-04-06T11:32:04;12.90;78.60
7117;DHT22;3600;48.568;7.870;2023-04-06T11:34:36;13.00;77.80
7117;DHT22;3600;48.568;7.870;2023-04-06T11:37:07;13.10;77.40
7117;DHT22;3600;48.568;7.870;2023-04-06T11:39:51;13.20;75.50
7117;DHT22;3600;48.568;7.870;2023-04-06T11:42:28;13.20;78.40
7117;DHT22;3600;48.568;7.870;2023-04-06T11:44:57;13.20;74.90
7117;DHT22;3600;48.568;7.870;2023-04-06T11:47:28;12.90;75.10
7117;DHT22;3600;48.568;7.870;2023-04-06T11:49:56;12.80;78.50
7117;DHT22;3600;48.568;7.870;2023-04-06T11:52:27;13.00;79.30
7117;DHT22;3600;48.568;7.870;2023-04-06T11:54:54;13.30;79.50
7117;DHT22;3600;48.568;7.870;2023-04-06T11:57:23;13.50;78.90
7117;DHT22;3600;48.568;7.870;2023-04-06T11:59:52;13.60;75.20
7117;DHT22;3600;48.568;7.870;2023-04-06T12:02:19;13.80;78.40
7117;DHT22;3600;48.568;7.870;2023-04-06T12:04:46;13.80;78.50
7117;DHT22;3600;48.568;7.870;2023-04-06T12:07:13;13.90;76.80
7117;DHT22;3600;48.568;7.870;2023-04-06T12:09:39;13.80;75.60
7117;DHT22;3600;48.568;7.870;2023-04-06T12:12:06;13.80;79.70
7117;DHT22;3600;48.568;7.870;2023-04-06T12:14:33;13.90;79.90
7117;DHT22;3600;48.568;7.870;2023-04-06T12:17:00;14.00;77.40
7117;DHT22;3600;48.568;7.870;2023-04-06T12:19:27;14.10;77.40
7117;DHT22;3600;48.568;7.870;2023-04-06T12:21:56;14.20;77.00
7117;DHT22;3600;48.568;7.870;2023-04-06T12:24:24;14.00;77.80
7117;DHT22;3600;48.568;7.870;2023-04-06T12:26:51;13.70;77.10
7117;DHT22;3600;48.568;7.870;2023-04-06T12:29:28;13.70;78.20
7117;DHT22;3600;48.568;7.870;2023-04-06T12:31:55;13.80;78.40
7117;DHT22;3600;48.568;7.870;2023-04-06T12:34:22;13.90;77.70
7117;DHT22;3600;48.568;7.870;2023-04-06T12:36:49;14.00;77.40
7117;DHT22;3600;48.568;7.870;2023-04-06T12:39:18;14.00;76.70
7117;DHT22;3600;48.568;7.870;2023-04-06T12:41:47;14.10;76.40
7117;DHT22;3600;48.568;7.870;2023-04-06T12:44:14;14.20;77.60
7117;DHT22;3600;48.568;7.870;2023-04-06T12:46:41;14.10;77.90
7117;DHT22;3600;48.568;7.870;2023-04-06T12:49:09;14.10;77.80
7117;DHT22;3600;48.568;7.870;2023-04-06T12:51:36;14.10;76.20
7117;DHT22;3600;48.568;7.870;2023-04-06T12:54:03;14.10;77.90
7117;DHT22;3600;48.568;7.870;2023-04-06T12:56:30;14.20;76.80
7117;DHT22;3600;48.568;7.870;2023-04-06T12:58:57;14.10;77.10
7117;DHT22;3600;48.568;7.870;2023-04-06T13:01:24;14.10;76.10
7117;DHT22;3600;48.568;7.870;2023-04-06T13:03:52;14.10;77.60
7117;DHT22;3600;48.568;7.870;2023-04-06T13:06:19;14.00;77.20
7117;DHT22;3600;48.568;7.870;2023-04-06T13:08:45;13.90;77.90
7117;DHT22;3600;48.568;7.870;2023-04-06T13:11:13;13.90;77.00
7117;DHT22;3600;48.568;7.870;2023-04-06T13:13:41;13.90;76.90
7117;DHT22;3600;48.568;7.870;2023-04-06T13:16:08;13.90;77.20
7117;DHT22;3600;48.568;7.870;2023-04-06T13:18:35;13.90;77.70
7117;DHT22;3600;48.568;7.870;2023-04-06T13:21:06;13.80;75.50
7117;DHT22;3600;48.568;7.870;2023-04-06T13:23:33;13.70;75.00
7117;DHT22;3600;48.568;7.870;2023-04-06T13:28:30;13.70;76.90
7117;DHT22;3600;48.568;7.870;2023-04-06T13:30:58;13.50;78.50
7117;DHT22;3600;48.568;7.870;2023-04-06T13:33:26;13.60;80.00
7117;DHT22;3600;48.568;7.870;2023-04-06T13:35:53;13.60;77.20
7117;DHT22;3600;48.568;7.870;2023-04-06T13:38:20;13.40;76.90
7117;DHT22;3600;48.568;7.870;2023-04-06T13:40:46;13.50;79.40
7117;DHT22;3600;48.568;7.870;2023-04-06T13:43:13;13.70;79.30
7117;DHT22;3600;48.568;7.870;2023-04-06T13:45:40;13.80;77.70
7117;DHT22;3600;48.568;7.870;2023-04-06T13:48:07;13.70;77.60
7117;DHT22;3600;48.568;7.870;2023-04-06T13:50:34;13.80;76.80
7117;DHT22;3600;48.568;7.870;2023-04-06T13:53:01;13.90;75.80
7117;DHT22;3600;48.568;7.870;2023-04-06T13:55:28;13.90;71.30
7117;DHT22;3600;48.568;7.870;2023-04-06T13:57:55;13.80;75.00
7117;DHT22;3600;48.568;7.870;2023-04-06T14:00:22;13.90;74.90
7117;DHT22;3600;48.568;7.870;2023-04-06T14:02:49;13.90;75.90
7117;DHT22;3600;48.568;7.870;2023-04-06T14:05:16;13.90;76.00
7117;DHT22;3600;48.568;7.870;2023-04-06T14:07:43;13.80;76.70
7117;DHT22;3600;48.568;7.870;2023-04-06T14:10:10;13.90;76.40
7117;DHT22;3600;48.568;7.870;2023-04-06T14:12:43;13.70;76.10
7117;DHT22;3600;48.568;7.870;2023-04-06T14:15:13;13.70;77.80
7117;DHT22;3600;48.568;7.870;2023-04-06T14:17:40;13.70;77.10
7117;DHT22;3600;48.568;7.870;2023-04-06T14:20:07;13.60;76.20
7117;DHT22;3600;48.568;7.870;2023-04-06T14:22:34;13.70;76.90
7117;DHT22;3600;48.568;7.870;2023-04-06T14:25:02;13.80;76.50
7117;DHT22;3600;48.568;7.870;2023-04-06T14:27:28;13.80;75.20
7117;DHT22;3600;48.568;7.870;2023-04-06T14:29:55;13.80;76.10
7117;DHT22;3600;48.568;7.870;2023-04-06T14:32:22;13.70;77.30
7117;DHT22;3600;48.568;7.870;2023-04-06T14:34:51;13.70;76.70
7117;DHT22;3600;48.568;7.870;2023-04-06T14:37:17;13.70;75.40
7117;DHT22;3600;48.568;7.870;2023-04-06T14:39:45;13.70;76.70
7117;DHT22;3600;48.568;7.870;2023-04-06T14:42:11;13.60;76.70
7117;DHT22;3600;48.568;7.870;2023-04-06T14:44:38;13.50;77.10
7117;DHT22;3600;48.568;7.870;2023-04-06T14:47:09;13.60;77.60
7117;DHT22;3600;48.568;7.870;2023-04-06T14:49:36;13.50;76.20
7117;DHT22;3600;48.568;7.870;2023-04-06T14:52:03;13.60;77.80
7117;DHT22;3600;48.568;7.870;2023-04-06T14:54:30;13.60;76.10
7117;DHT22;3600;48.568;7.870;2023-04-06T14:56:57;13.60;76.30
7117;DHT22;3600;48.568;7.870;2023-04-06T14:59:24;13.60;76.70
7117;DHT22;3600;48.568;7.870;2023-04-06T15:01:50;13.60;77.00
7117;DHT22;3600;48.568;7.870;2023-04-06T15:04:18;13.70;77.30
7117;DHT22;3600;48.568;7.870;2023-04-06T15:06:45;13.70;77.30
7117;DHT22;3600;48.568;7.870;2023-04-06T15:09:11;13.60;76.30
7117;DHT22;3600;48.568;7.870;2023-04-06T15:11:38;13.50;76.90
7117;DHT22;3600;48.568;7.870;2023-04-06T15:14:06;13.50;75.50
7117;DHT22;3600;48.568;7.870;2023-04-06T15:16:32;13.30;77.30
7117;DHT22;3600;48.568;7.870;2023-04-06T15:19:00;13.20;78.30
7117;DHT22;3600;48.568;7.870;2023-04-06T15:21:28;13.20;76.80
7117;DHT22;3600;48.568;7.870;2023-04-06T15:23:55;13.20;77.30
7117;DHT22;3600;48.568;7.870;2023-04-06T15:26:22;13.10;78.90
7117;DHT22;3600;48.568;7.870;2023-04-06T15:28:49;12.90;81.40
7117;DHT22;3600;48.568;7.870;2023-04-06T15:31:16;12.80;83.10
7117;DHT22;3600;48.568;7.870;2023-04-06T15:34:01;12.60;83.20
7117;DHT22;3600;48.568;7.870;2023-04-06T15:36:29;12.00;84.00
7117;DHT22;3600;48.568;7.870;2023-04-06T15:38:59;12.00;88.20
7117;DHT22;3600;48.568;7.870;2023-04-06T15:41:27;11.80;84.50
7117;DHT22;3600;48.568;7.870;2023-04-06T15:43:54;11.80;84.30
7117;DHT22;3600;48.568;7.870;2023-04-06T15:46:21;11.90;84.20
7117;DHT22;3600;48.568;7.870;2023-04-06T15:48:48;12.10;84.30
7117;DHT22;3600;48.568;7.870;2023-04-06T15:51:15;12.10;84.00
7117;DHT22;3600;48.568;7.870;2023-04-06T15:53:43;12.00;84.50
7117;DHT22;3600;48.568;7.870;2023-04-06T15:56:11;12.00;84.50
7117;DHT22;3600;48.568;7.870;2023-04-06T15:58:40;12.00;84.80
7117;DHT22;3600;48.568;7.870;2023-04-06T16:01:14;12.00;84.30
7117;DHT22;3600;48.568;7.870;2023-04-06T16:03:42;12.00;85.50
7117;DHT22;3600;48.568;7.870;2023-04-06T16:06:10;12.00;85.50
7117;DHT22;3600;48.568;7.870;2023-04-06T16:08:39;12.00;86.40
7117;DHT22;3600;48.568;7.870;2023-04-06T16:11:06;11.80;86.00
7117;DHT22;3600;48.568;7.870;2023-04-06T16:13:33;11.70;85.60
7117;DHT22;3600;48.568;7.870;2023-04-06T16:16:00;11.80;85.80
7117;DHT22;3600;48.568;7.870;2023-04-06T16:18:27;11.70;85.60
7117;DHT22;3600;48.568;7.870;2023-04-06T16:20:54;11.60;85.10
7117;DHT22;3600;48.568;7.870;2023-04-06T16:23:21;11.60;85.50